Rock Springs, Wisconsin
Current Conditions -  °F | °C
As of 1:15 PM on Tuesday 21 Oct 2014 (Local Time) from KC35 Reporting Station
Overcast Overcast  
Wind Chill: 45°   Ceiling: 2600
Heat Index: 47°   Visibility: 10mi
Dew Point: 37°   Wind: 5mph
Humidity: 67%   Direction: 90°E
Pressure: 30.24"   Gusts: NA
Location:  43.49°N, 89.92°W
Report Text: KC35 211815Z AUTO 09004KT 10SM OVC026 08/03 A3024 RMK AO2 T00830025
Loading
Personal Weather Stations






























Interactive Weather Map
Tropical Storm Tracking
New forecast layout! Learn more

10-Day Weather Forecast

Advertisements
Track Severe Weather on mobile